METAR Data
IDs: Format: Raw Decoded Include TAF

Data at: 1019 UTC 26 Sep 2018

KGUL 261015Z AUTO 21009KT 10SM FEW020 29/25 A3000 RMK A01
KGUL 260955Z AUTO 21011KT 10SM FEW020 29/24 A3000 RMK A01
KGUL 260935Z AUTO 20012KT 10SM BKN020 BKN028 29/24 A3000 RMK A01
KGUL 260915Z AUTO 21012KT 10SM SCT020 BKN028 29/25 A3000 RMK A01
KGUL 260855Z AUTO 20012KT 10SM CLR 29/24 A3000 RMK A01
KGUL 260835Z AUTO 20013KT 10SM CLR 29/24 A3000 RMK A01
KGUL 260815Z AUTO 20012KT 10SM FEW020 29/24 A3001 RMK A01
KGUL 260755Z AUTO 20012KT 10SM CLR 29/25 A3001 RMK A01
KGUL 260735Z AUTO 19013KT 10SM CLR 29/25 A3002 RMK A01
KGUL 260715Z AUTO 18010KT 10SM FEW019 29/25 A3002 RMK A01
KGUL 260655Z AUTO 18010KT 10SM FEW020 29/24 A3003 RMK A01
KGUL 260635Z AUTO 18010KT 10SM FEW019 29/25 A3003 RMK A01
KGUL 260615Z AUTO 15010KT 10SM CLR 29/25 A3003 RMK A01
KGUL 260555Z AUTO 15011KT 10SM CLR 29/25 A3004 RMK A01
KGUL 260535Z AUTO 16011KT 10SM CLR 29/25 A3004 RMK A01
KGUL 260515Z AUTO 15013KT 10SM CLR 29/25 A3004 RMK A01
KGUL 260455Z AUTO 16014KT 10SM CLR 29/25 A3004 RMK A01
KGUL 260435Z AUTO 16011KT 10SM CLR 29/24 A3004 RMK A01
KGUL 260415Z AUTO 16011KT 10SM CLR 29/24 A3004 RMK A01
KGUL 260355Z AUTO 16012KT 10SM CLR 29/24 A3004 RMK A01
KGUL 260335Z AUTO 17010KT 10SM CLR 29/24 A3004 RMK A01
KGUL 260315Z AUTO 16012KT 10SM FEW021 FEW030 FEW042 29/25 A3004 RMK A01
KGUL 260255Z AUTO 19011KT 10SM FEW021 SCT030 SCT042 29/25 A3004 RMK A01
KGUL 260235Z AUTO 14008KT 10SM FEW021 FEW038 SCT070 29/25 A3004 RMK A01
KGUL 260215Z AUTO 15006KT 10SM FEW019 29/25 A3003 RMK A01
KGUL 260155Z AUTO 15007KT 10SM FEW019 FEW026 29/25 A3002 RMK A01
KGUL 260135Z AUTO 15007KT 10SM FEW020 FEW026 29/25 A3001 RMK A01
KGUL 260115Z AUTO 18007KT 10SM CLR 29/25 A3000 RMK A01
KGUL 260055Z AUTO 19008KT 10SM CLR 29/25 A2999 RMK A01
KGUL 260035Z AUTO 19008KT 10SM CLR 29/25 A2998 RMK A01
KGUL 260015Z AUTO 20007KT 10SM CLR 29/25 A2998 RMK A01
KGUL 252355Z AUTO 19008KT 10SM FEW023 29/25 A2998 RMK A01
KGUL 252335Z AUTO 20007KT 10SM FEW021 FEW028 SCT035 29/25 A2998 RMK A01
KGUL 252315Z AUTO 17007KT 10SM CLR 29/25 A2997 RMK A01
KGUL 252255Z AUTO 19009KT 10SM FEW043 FEW050 29/25 A2997 RMK A01
KGUL 252235Z AUTO 19008KT 10SM FEW022 29/25 A2997 RMK A01
KGUL 252215Z AUTO 20007KT 10SM FEW023 SCT030 29/25 A2997 RMK A01
KGUL 252155Z AUTO 17006KT 10SM SCT023 SCT030 30/25 A2997 RMK A01
KGUL 252135Z AUTO 20009KT 10SM FEW022 30/25 A2997 RMK A01
KGUL 252115Z AUTO 20008KT 10SM CLR 30/25 A2997 RMK A01
KGUL 252055Z AUTO 19009KT 10SM FEW022 30/25 A2997 RMK A01
KGUL 252035Z AUTO 21010KT 10SM FEW022 30/25 A2997 RMK A01
KGUL 252015Z AUTO 21013KT 10SM FEW021 30/24 A2997 RMK A01
KGUL 251955Z AUTO 21011KT 10SM CLR 30/24 A2997 RMK A01
KGUL 251935Z AUTO 22011KT 10SM CLR 30/24 A2998 RMK A01
KGUL 251915Z AUTO 22011KT 10SM CLR 30/24 A2999 RMK A01
KGUL 251855Z AUTO 20011KT 10SM CLR 30/24 A2999 RMK A01
KGUL 251835Z AUTO 21012KT 10SM FEW020 FEW030 30/24 A3000 RMK A01
KGUL 251815Z AUTO 21012KT 10SM FEW021 SCT030 30/25 A3001 RMK A01
KGUL 251755Z AUTO 21011KT 10SM CLR 30/24 A3001 RMK A01
KGUL 251735Z AUTO 21012KT 10SM FEW021 FEW028 30/25 A3002 RMK A01
KGUL 251715Z AUTO 20009KT 10SM FEW021 FEW026 30/25 A3003 RMK A01
KGUL 251655Z AUTO 21010KT 10SM FEW021 30/25 A3003 RMK A01
KGUL 251635Z AUTO 22011KT 10SM CLR 29/24 A3003 RMK A01
KGUL 251615Z AUTO 21011KT 10SM CLR 29/25 A3003 RMK A01
KGUL 251555Z AUTO 21012KT 10SM CLR 29/25 A3003 RMK A01
KGUL 251535Z AUTO 20011KT 10SM FEW020 29/25 A3003 RMK A01
KGUL 251515Z AUTO 21012KT 10SM CLR 29/24 A3002 RMK A01
KGUL 251455Z AUTO 21014KT 10SM CLR 29/24 A3002 RMK A01
KGUL 251435Z AUTO 21013KT 10SM CLR 29/24 A3001 RMK A01
KGUL 251415Z AUTO 20013KT 10SM FEW022 29/24 A3001 RMK A01
KGUL 251355Z AUTO 20013KT CLR 29/23 A3001 RMK A01
KGUL 251335Z AUTO 21012KT 10SM FEW021 29/24 A3000 RMK A01
KGUL 251315Z AUTO 21011KT 10SM CLR 29/24 A3000 RMK A01
KGUL 251255Z AUTO 20011KT 10SM FEW020 29/24 A3000 RMK A01
KGUL 251235Z AUTO 20013KT 10SM SCT020 29/24 A2999 RMK A01
KGUL 251215Z AUTO 19013KT 10SM FEW021 29/24 A2999 RMK A01
KGUL 251155Z AUTO 16011KT 10SM FEW020 FEW027 FEW032 28/24 A2998 RMK A01
KGUL 251135Z AUTO 20009KT 10SM FEW022 FEW028 SCT032 28/25 A2998 RMK A01
KGUL 251115Z AUTO 20010KT 10SM CLR 28/24 A2997 RMK A01
KGUL 251055Z AUTO 20011KT 10SM CLR 28/24 A2997 RMK A01
KGUL 251035Z AUTO 20010KT 10SM CLR 28/25 A2997 RMK A01
KGUL 251015Z AUTO 18011KT 10SM FEW019 FEW024 FEW039 28/24 A2997 RMK A01
KGUL 250955Z AUTO 19010KT 10SM SCT023 SCT039 28/24 A2997 RMK A01
KGUL 250935Z AUTO 16010KT 10SM FEW020 28/24 A2997 RMK A01
KGUL 250915Z AUTO 19010KT 10SM CLR 28/24 A2997 RMK A01
KGUL 250855Z AUTO 18010KT 10SM CLR 28/24 A2997 RMK A01
KGUL 250835Z AUTO 19010KT 10SM FEW021 28/24 A2997 RMK A01
KGUL 250815Z AUTO 18011KT 10SM FEW021 28/24 A2997 RMK A01
KGUL 250755Z AUTO 17009KT 10SM CLR 28/24 A2997 RMK A01
KGUL 250735Z AUTO 15012KT 10SM FEW070 28/24 A2997 RMK A01
KGUL 250715Z AUTO 13008KT 9SM SCT022 SCT039 BKN070 27/24 A2998 RMK A01
KGUL 250655Z AUTO 16015KT 10SM SCT020 BKN038 28/24 A2998 RMK A01
KGUL 250635Z AUTO 13011KT 10SM FEW019 28/24 A2998 RMK A01
KGUL 250615Z AUTO 14012KT 10SM CLR 28/24 A2998 RMK A01
KGUL 250555Z AUTO 15012KT 10SM FEW020 28/23 A2998 RMK A01
KGUL 250535Z AUTO 15012KT 10SM CLR 28/24 A2998 RMK A01
KGUL 250515Z AUTO 15011KT 10SM CLR 28/24 A2998 RMK A01
KGUL 250455Z AUTO 16012KT 10SM CLR 28/24 A2998 RMK A01
KGUL 250435Z AUTO 16011KT 10SM CLR 28/24 A2998 RMK A01
KGUL 250415Z AUTO 15011KT 10SM CLR 28/24 A2999 RMK A01
KGUL 250355Z AUTO 14010KT 10SM CLR 28/23 A2999 RMK A01
KGUL 250335Z AUTO 14010KT 10SM CLR 28/23 A2999 RMK A01
KGUL 250315Z AUTO 8/76000009KT 10SM CLR 28/23 A2999 RMK A01
KGUL 250255Z AUTO 12009KT 10SM CLR 28/23 A2998 RMK A01
KGUL 250235Z AUTO 12008KT 10SM CLR 28/24 A2998 RMK A01
KGUL 250215Z AUTO 12008KT 10SM CLR 28/23 A2997 RMK A01
KGUL 250155Z AUTO 13009KT 10SM CLR 28/23 A2996 RMK A01
KGUL 250135Z AUTO 13008KT 10SM CLR 28/23 A2995 RMK A01
KGUL 250115Z AUTO 14008KT 10SM CLR 28/23 A2995 RMK A01
KGUL 250055Z AUTO 16007KT 10SM CLR 28/23 A2994 RMK A01
KGUL 250035Z AUTO 16006KT 10SM CLR 28/23 A2993 RMK A01
KGUL 250015Z AUTO 18005KT 10SM CLR 28/23 A2993 RMK A01
KGUL 242355Z AUTO 20006KT 10SM CLR 28/23 A2992 RMK A01
KGUL 242335Z AUTO 20005KT 10SM CLR 28/23 A2992 RMK A01
KGUL 242315Z AUTO 20005KT 10SM CLR 28/23 A2992 RMK A01
KGUL 242255Z AUTO 19006KT 10SM CLR 28/23 A2992 RMK A01
KGUL 242235Z AUTO 17005KT 10SM CLR 28/23 A2993 RMK A01